Time;durP1;ratioP1;P1;durP2;ratioP2;P2;SDS_P1;SDS_P2;PMS_P1;PMS_P2;Temp;Humidity;BMP_temperature;BMP_pressure;BME280_temperature;BME280_humidity;BME280_pressure;Samples;Min_cycle;Max_cycle;Signal;HPM_P1;HPM_P2
2022/06/12 00:01:50;;;;;;;11.88;2.60;;;12.80;99.90;;;;;;5072386;28;20127;-83
2022/06/12 00:04:16;;;;;;;9.73;2.10;;;12.70;99.90;;;;;;5073677;28;20052;-83
2022/06/12 00:06:42;;;;;;;9.38;2.20;;;12.70;99.90;;;;;;5055842;28;20048;-83
2022/06/12 00:09:08;;;;;;;9.10;2.30;;;12.70;99.90;;;;;;5073443;28;20051;-82
2022/06/12 00:11:35;;;;;;;9.52;2.40;;;12.90;99.90;;;;;;5073130;28;20052;-83
2022/06/12 00:14:03;;;;;;;10.68;2.03;;;12.60;99.90;;;;;;5073457;28;20575;-82
2022/06/12 00:16:32;;;;;;;7.80;1.90;;;12.60;99.90;;;;;;5073673;28;20086;-82
2022/06/12 00:18:59;;;;;;;8.25;3.10;;;13.00;99.90;;;;;;5072201;28;20052;-83
2022/06/12 00:21:26;;;;;;;9.68;1.95;;;13.00;99.90;;;;;;5073353;28;20432;-83
2022/06/12 00:23:56;;;;;;;7.55;1.80;;;12.60;99.90;;;;;;5073233;28;20088;-83
2022/06/12 00:26:24;;;;;;;11.98;1.95;;;12.60;99.90;;;;;;5073185;28;20044;-83
2022/06/12 00:28:56;;;;;;;7.22;1.65;;;13.20;99.90;;;;;;5071881;28;20483;-82
2022/06/12 00:31:22;;;;;;;7.88;1.70;;;12.60;99.90;;;;;;5071906;28;20058;-82
2022/06/12 00:33:47;;;;;;;9.75;2.22;;;12.50;99.90;;;;;;5072917;28;20049;-82
2022/06/12 00:36:13;;;;;;;12.05;2.10;;;12.50;99.90;;;;;;5071698;28;20084;-81
2022/06/12 00:38:39;;;;;;;9.60;2.00;;;12.50;99.90;;;;;;5072550;28;20119;-83
2022/06/12 00:41:06;;;;;;;6.68;2.03;;;12.70;99.90;;;;;;5072694;28;20045;-81
2022/06/12 00:43:31;;;;;;;7.55;1.77;;;13.00;99.90;;;;;;5071239;28;20056;-84
2022/06/12 00:45:59;;;;;;;11.20;2.03;;;12.50;99.90;;;;;;5072970;28;20048;-82
2022/06/12 00:48:33;;;;;;;8.75;1.77;;;12.50;99.90;;;;;;5071752;28;20048;-81
2022/06/12 00:51:10;;;;;;;9.27;2.15;;;12.50;99.90;;;;;;5072808;28;20040;-82
2022/06/12 00:53:50;;;;;;;6.57;1.73;;;12.50;99.90;;;;;;5071166;28;20059;-81
2022/06/12 00:56:20;;;;;;;8.73;1.90;;;12.40;99.90;;;;;;5072158;28;20055;-83
2022/06/12 00:58:56;;;;;;;11.60;2.45;;;12.50;99.90;;;;;;5072312;28;20036;-83
2022/06/12 01:01:27;;;;;;;15.50;2.05;;;12.40;99.90;;;;;;5070807;28;20813;-82
2022/06/12 01:06:37;;;;;;;6.72;2.00;;;12.40;99.90;;;;;;5070826;28;20049;-81
2022/06/12 01:09:13;;;;;;;9.65;1.70;;;12.40;99.90;;;;;;5072308;28;20059;-82
2022/06/12 01:11:42;;;;;;;9.35;2.25;;;12.40;99.90;;;;;;5071840;28;20479;-81
2022/06/12 01:14:12;;;;;;;8.13;1.80;;;12.40;99.90;;;;;;5071000;28;20060;-82
2022/06/12 01:16:42;;;;;;;11.60;2.03;;;12.40;99.90;;;;;;5071757;28;20041;-84
2022/06/12 01:19:16;;;;;;;5.78;1.52;;;12.40;99.90;;;;;;5070878;28;20551;-81
2022/06/12 01:21:47;;;;;;;10.50;1.85;;;12.40;99.90;;;;;;5071865;28;20044;-80
2022/06/12 01:24:21;;;;;;;8.52;2.03;;;12.30;99.90;;;;;;5071853;28;20157;-83
2022/06/12 01:26:59;;;;;;;10.38;2.33;;;12.30;99.90;;;;;;5071612;28;20055;-82
2022/06/12 01:29:30;;;;;;;7.25;1.70;;;12.30;99.90;;;;;;5070130;28;20514;-81
2022/06/12 01:32:03;;;;;;;14.07;1.83;;;12.30;99.90;;;;;;5071525;28;20037;-81
2022/06/12 01:34:51;;;;;;;9.80;1.92;;;12.30;99.90;;;;;;5070314;28;20101;-81
2022/06/12 01:37:22;;;;;;;7.50;1.70;;;12.20;99.90;;;;;;5071340;28;20563;-82
2022/06/12 01:39:56;;;;;;;14.07;1.85;;;12.30;99.90;;;;;;5070097;28;20083;-81
2022/06/12 01:42:45;;;;;;;7.40;2.33;;;12.20;99.90;;;;;;5071094;28;20092;-82
2022/06/12 01:45:57;;;;;;;11.05;2.00;;;12.20;99.90;;;;;;5070261;28;20048;-81
2022/06/12 01:48:28;;;;;;;8.60;1.25;;;12.20;99.90;;;;;;5048655;28;20624;-82
2022/06/12 01:51:09;;;;;;;10.75;2.28;;;12.70;99.90;;;;;;5048795;28;20836;-80
2022/06/12 01:53:54;;;;;;;12.55;2.10;;;12.30;99.90;;;;;;5048631;28;20089;-81
2022/06/12 01:56:53;;;;;;;12.98;2.28;;;12.50;99.90;;;;;;5048822;28;20044;-81
2022/06/12 01:59:43;;;;;;;12.57;2.97;;;12.20;99.90;;;;;;5044019;28;20049;-82
2022/06/12 02:02:19;;;;;;;9.88;2.15;;;12.60;99.90;;;;;;5015555;28;20049;-81
2022/06/12 02:04:55;;;;;;;6.63;1.58;;;12.20;99.90;;;;;;5031717;28;20779;-81
2022/06/12 02:07:24;;;;;;;9.07;2.08;;;12.20;99.90;;;;;;5048558;28;20049;-82
2022/06/12 02:09:59;;;;;;;12.40;1.73;;;12.10;99.90;;;;;;5032018;28;20444;-83
2022/06/12 02:15:30;;;;;;;9.13;2.10;;;12.10;99.90;;;;;;5047954;28;20408;-81
2022/06/12 02:18:12;;;;;;;10.05;2.95;;;12.10;99.90;;;;;;5031637;28;20061;-81
2022/06/12 02:20:43;;;;;;;8.20;2.15;;;12.50;99.90;;;;;;5048361;28;20049;-81
2022/06/12 02:23:16;;;;;;;12.95;2.53;;;12.50;99.90;;;;;;5048250;28;20092;-82
2022/06/12 02:25:44;;;;;;;11.73;2.90;;;12.10;99.90;;;;;;5063749;28;20052;-82
2022/06/12 02:28:18;;;;;;;9.88;2.10;;;12.40;99.90;;;;;;5069587;28;20056;-81
2022/06/12 02:30:48;;;;;;;6.82;2.00;;;12.10;99.90;;;;;;5070478;28;20044;-81
2022/06/12 02:33:38;;;;;;;13.25;2.10;;;12.10;99.90;;;;;;5069575;28;20044;-81
2022/06/12 02:36:18;;;;;;;13.57;2.30;;;12.10;99.90;;;;;;5070564;28;20098;-82
2022/06/12 02:38:57;;;;;;;11.27;2.22;;;12.10;99.90;;;;;;5070622;28;20057;-82
2022/06/12 02:41:36;;;;;;;9.65;2.30;;;12.00;99.90;;;;;;5069084;28;20043;-81
2022/06/12 02:44:09;;;;;;;13.50;2.40;;;12.00;99.90;;;;;;5069301;28;20063;-82
2022/06/12 02:46:43;;;;;;;13.45;2.83;;;12.10;99.90;;;;;;5069155;28;20036;-81
2022/06/12 02:49:11;;;;;;;9.77;2.28;;;12.00;99.90;;;;;;5069055;28;20052;-81
2022/06/12 02:51:52;;;;;;;12.98;2.75;;;12.20;99.90;;;;;;5070530;28;20102;-81
2022/06/12 02:54:50;;;;;;;10.70;2.45;;;12.00;99.90;;;;;;5070270;28;20094;-81
2022/06/12 02:57:24;;;;;;;8.65;2.42;;;12.00;99.90;;;;;;5030957;28;20064;-82
2022/06/12 03:00:13;;;;;;;12.10;2.40;;;12.20;99.90;;;;;;5047607;28;20492;-81
2022/06/12 03:03:07;;;;;;;12.85;2.83;;;12.00;99.90;;;;;;5031224;28;20056;-82
2022/06/12 03:05:37;;;;;;;13.52;2.83;;;11.90;99.90;;;;;;4968999;28;20055;-81
2022/06/12 03:08:16;;;;;;;9.75;2.38;;;12.40;99.90;;;;;;4969242;28;20116;-81
2022/06/12 03:11:07;;;;;;;10.52;2.50;;;11.90;99.90;;;;;;4969279;28;20050;-83
2022/06/12 03:13:35;;;;;;;10.75;2.45;;;11.90;99.90;;;;;;4969460;28;20050;-82
2022/06/12 03:16:24;;;;;;;13.40;2.80;;;11.90;99.90;;;;;;4969352;28;20557;-82
2022/06/12 03:19:11;;;;;;;11.80;2.70;;;11.80;99.90;;;;;;4947148;28;20154;-81
2022/06/12 03:21:46;;;;;;;13.45;3.03;;;11.90;99.90;;;;;;4952999;28;20094;-83
2022/06/12 03:24:19;;;;;;;8.10;2.47;;;11.80;99.90;;;;;;4970276;28;20047;-82
2022/06/12 03:27:11;;;;;;;12.90;2.83;;;11.80;99.90;;;;;;4972971;28;20160;-81
2022/06/12 03:29:42;;;;;;;11.55;3.85;;;11.80;99.90;;;;;;4934611;29;20813;-82
2022/06/12 03:32:30;;;;;;;7.13;2.50;;;11.80;99.90;;;;;;4934338;29;20059;-81
2022/06/12 03:35:21;;;;;;;9.40;2.60;;;11.80;99.90;;;;;;4918163;29;20147;-82
2022/06/12 03:38:12;;;;;;;10.02;2.72;;;12.20;99.90;;;;;;4934115;29;20459;-82
2022/06/12 03:41:03;;;;;;;10.70;2.75;;;11.80;99.90;;;;;;4918852;29;20059;-82
2022/06/12 03:43:33;;;;;;;8.32;2.28;;;11.80;99.90;;;;;;4990208;28;20058;-82
2022/06/12 03:46:09;;;;;;;9.02;2.20;;;11.90;99.90;;;;;;4975821;28;20729;-82
2022/06/12 03:48:47;;;;;;;6.68;2.63;;;11.80;99.90;;;;;;4991919;28;20222;-82
2022/06/12 03:51:33;;;;;;;13.50;2.58;;;11.70;99.90;;;;;;4975492;28;20050;-82
2022/06/12 03:54:15;;;;;;;13.70;2.85;;;11.70;99.90;;;;;;4991630;28;20062;-81
2022/06/12 03:59:41;;;;;;;8.70;2.55;;;12.10;99.90;;;;;;4991726;28;20042;-83
2022/06/12 04:02:10;;;;;;;13.63;2.67;;;12.00;99.90;;;;;;4991336;28;20079;-83
2022/06/12 04:04:39;;;;;;;8.27;2.30;;;11.80;99.90;;;;;;4991238;28;20054;-82
2022/06/12 04:07:08;;;;;;;8.23;2.70;;;11.80;99.90;;;;;;5047402;28;20117;-82
2022/06/12 04:09:38;;;;;;;9.70;2.50;;;12.20;99.90;;;;;;5071835;28;20052;-82
2022/06/12 04:12:10;;;;;;;9.18;2.25;;;11.90;99.90;;;;;;5073143;28;20048;-80
2022/06/12 04:14:42;;;;;;;7.50;2.35;;;11.90;99.90;;;;;;5073081;28;20072;-81
2022/06/12 04:17:08;;;;;;;10.40;2.30;;;12.00;99.90;;;;;;5071222;28;20048;-80
2022/06/12 04:19:58;;;;;;;11.35;2.38;;;12.00;99.90;;;;;;5072834;28;20048;-82
2022/06/12 04:22:25;;;;;;;14.05;2.42;;;12.00;99.90;;;;;;5071282;28;20060;-82
2022/06/12 04:24:57;;;;;;;8.27;2.20;;;12.60;99.90;;;;;;5071453;28;20088;-82
2022/06/12 04:27:25;;;;;;;8.32;2.65;;;12.40;99.90;;;;;;5071730;28;20074;-80
2022/06/12 04:29:56;;;;;;;8.48;2.38;;;12.10;99.90;;;;;;5071629;28;20132;-81
2022/06/12 04:32:23;;;;;;;9.20;2.28;;;12.20;99.90;;;;;;5072698;28;20043;-83
2022/06/12 04:34:49;;;;;;;8.82;2.60;;;12.20;99.90;;;;;;5072504;28;20044;-80
2022/06/12 04:37:28;;;;;;;10.68;2.28;;;12.20;99.90;;;;;;5072640;28;20045;-82
2022/06/12 04:39:54;;;;;;;11.10;2.55;;;12.20;99.90;;;;;;5072640;28;20048;-79
2022/06/12 04:42:23;;;;;;;10.30;2.72;;;12.20;99.90;;;;;;5072108;28;20064;-80
2022/06/12 04:44:49;;;;;;;8.80;2.08;;;12.30;99.90;;;;;;5071108;28;20131;-82
2022/06/12 04:47:18;;;;;;;10.57;2.10;;;13.00;99.90;;;;;;5072597;28;20048;-81
2022/06/12 04:49:44;;;;;;;9.95;1.80;;;12.40;99.90;;;;;;5072111;28;20091;-79
2022/06/12 04:52:11;;;;;;;10.77;2.10;;;12.40;99.90;;;;;;5104931;28;20049;-82
2022/06/12 04:54:39;;;;;;;12.20;3.33;;;12.50;99.90;;;;;;5072386;28;20052;-81
2022/06/12 04:57:06;;;;;;;11.23;2.25;;;12.60;99.90;;;;;;5070868;28;20048;-84
2022/06/12 04:59:32;;;;;;;12.50;2.53;;;12.60;99.90;;;;;;5071236;28;20441;-80
2022/06/12 05:01:58;;;;;;;8.18;2.42;;;12.70;99.90;;;;;;5071825;28;20045;-82
2022/06/12 05:04:26;;;;;;;11.73;2.53;;;12.70;99.90;;;;;;5071896;28;20048;-82
2022/06/12 05:06:51;;;;;;;16.00;3.00;;;12.80;99.90;;;;;;5072185;28;20056;-82
2022/06/12 05:09:22;;;;;;;14.23;2.33;;;12.90;99.90;;;;;;5072029;28;20044;-82
2022/06/12 05:11:48;;;;;;;10.68;2.72;;;13.40;99.90;;;;;;5070449;28;20063;-81
2022/06/12 05:14:14;;;;;;;10.38;2.42;;;13.00;99.90;;;;;;5072095;28;20404;-82
2022/06/12 05:16:52;;;;;;;10.55;2.65;;;13.10;99.90;;;;;;5071913;28;20048;-83
2022/06/12 05:19:21;;;;;;;10.75;2.33;;;13.30;99.90;;;;;;5070476;28;20086;-82
2022/06/12 05:21:47;;;;;;;11.45;2.90;;;13.30;99.90;;;;;;5070498;28;20063;-81
2022/06/12 05:24:13;;;;;;;14.10;3.22;;;13.60;99.90;;;;;;5071743;28;20049;-84
2022/06/12 05:26:40;;;;;;;13.73;2.60;;;13.50;99.90;;;;;;5071754;28;20040;-84
2022/06/12 05:29:11;;;;;;;11.38;3.03;;;13.60;99.90;;;;;;5071837;28;20052;-83
2022/06/12 05:31:36;;;;;;;11.82;2.95;;;13.70;99.90;;;;;;5071850;28;20044;-82
2022/06/12 05:34:02;;;;;;;14.57;3.05;;;13.80;99.90;;;;;;5070254;28;20063;-81
2022/06/12 05:36:28;;;;;;;14.25;3.55;;;13.90;99.90;;;;;;5071336;28;20090;-80
2022/06/12 05:38:55;;;;;;;17.50;3.47;;;14.10;99.90;;;;;;5071438;28;20048;-81
2022/06/12 05:41:20;;;;;;;12.40;3.35;;;14.20;99.90;;;;;;5071200;28;20040;-82
2022/06/12 05:43:46;;;;;;;16.48;3.90;;;14.20;99.90;;;;;;5069713;28;20059;-84
2022/06/12 05:46:15;;;;;;;16.60;4.25;;;14.40;99.90;;;;;;5071143;28;20052;-82
2022/06/12 05:48:41;;;;;;;19.02;3.83;;;14.50;99.90;;;;;;5103533;28;20136;-80
2022/06/12 05:51:07;;;;;;;19.80;4.20;;;14.60;99.90;;;;;;5070976;28;20102;-81
2022/06/12 05:53:38;;;;;;;17.52;3.25;;;14.80;99.90;;;;;;5071343;28;20109;-81
2022/06/12 05:56:13;;;;;;;16.92;3.72;;;14.80;99.90;;;;;;5071213;28;20494;-79
2022/06/12 05:58:39;;;;;;;17.95;3.65;;;15.00;99.90;;;;;;5052982;28;20048;-80
2022/06/12 06:01:07;;;;;;;22.58;4.38;;;15.00;99.90;;;;;;5069868;28;20111;-81
2022/06/12 06:03:33;;;;;;;16.15;4.28;;;15.20;99.90;;;;;;5071211;28;20048;-82
2022/06/12 06:05:59;;;;;;;20.95;3.97;;;15.30;99.90;;;;;;5070010;28;20127;-84
2022/06/12 06:08:25;;;;;;;20.83;4.60;;;15.50;99.90;;;;;;5070953;28;20045;-81
2022/06/12 06:10:51;;;;;;;18.27;4.13;;;15.50;99.90;;;;;;5070953;28;20041;-83
2022/06/12 06:13:16;;;;;;;21.50;4.45;;;15.60;99.90;;;;;;5069823;28;20476;-83
2022/06/12 06:15:43;;;;;;;15.20;4.35;;;15.70;99.90;;;;;;5071005;28;20127;-82
2022/06/12 06:18:09;;;;;;;14.25;4.15;;;16.00;99.90;;;;;;5070833;28;20055;-83
2022/06/12 06:20:37;;;;;;;22.55;4.85;;;15.90;99.90;;;;;;5070585;28;20131;-85
2022/06/12 06:23:04;;;;;;;17.63;4.55;;;16.00;99.90;;;;;;5070674;28;20044;-86
2022/06/12 06:25:31;;;;;;;25.02;4.32;;;16.10;99.90;;;;;;5069271;28;20044;-83
2022/06/12 06:27:57;;;;;;;21.35;4.75;;;16.30;99.90;;;;;;5070594;28;20483;-81
2022/06/12 06:30:24;;;;;;;24.40;5.65;;;16.40;99.90;;;;;;5070847;28;20165;-86
2022/06/12 06:32:50;;;;;;;18.67;4.88;;;16.60;99.90;;;;;;5070558;28;20127;-85
2022/06/12 06:35:17;;;;;;;25.63;4.57;;;16.80;99.90;;;;;;5069584;28;20046;-85
2022/06/12 06:37:44;;;;;;;21.77;5.10;;;17.00;99.90;;;;;;5070317;28;20080;-83
2022/06/12 06:40:12;;;;;;;25.38;5.07;;;17.10;99.90;;;;;;5069122;28;20131;-80
2022/06/12 06:42:38;;;;;;;23.65;5.50;;;17.30;99.90;;;;;;5068976;28;20154;-86
2022/06/12 06:47:49;;;;;;;22.45;4.32;;;17.80;99.90;;;;;;5070506;28;20053;-81
2022/06/12 06:50:17;;;;;;;16.67;4.63;;;18.20;99.90;;;;;;5070496;28;20048;-82
2022/06/12 06:52:43;;;;;;;21.10;4.45;;;18.20;99.90;;;;;;5069896;28;20072;-84
2022/06/12 06:55:09;;;;;;;26.55;5.50;;;18.40;99.90;;;;;;5069259;28;20083;-82
2022/06/12 06:57:37;;;;;;;18.25;4.35;;;18.70;99.90;;;;;;5070659;28;20101;-83
2022/06/12 07:00:05;;;;;;;19.40;4.57;;;19.30;99.90;;;;;;5074628;28;20553;-84
2022/06/12 07:02:31;;;;;;;17.48;4.00;;;19.20;99.90;;;;;;5073101;28;20056;-85
2022/06/12 07:04:58;;;;;;;18.08;4.43;;;19.30;99.90;;;;;;5074437;28;20042;-84
2022/06/12 07:07:24;;;;;;;23.88;5.30;;;19.60;99.90;;;;;;5072663;28;20093;-84
2022/06/12 07:09:50;;;;;;;16.50;4.50;;;19.80;99.90;;;;;;5074572;28;20036;-85
2022/06/12 07:12:16;;;;;;;18.92;4.68;;;19.90;99.90;;;;;;5074331;28;20053;-84
2022/06/12 07:14:41;;;;;;;17.42;4.65;;;20.00;99.90;;;;;;5073016;28;20045;-81
2022/06/12 07:17:07;;;;;;;25.92;4.45;;;20.20;99.90;;;;;;5074211;28;20036;-84
2022/06/12 07:19:33;;;;;;;21.17;3.85;;;20.50;99.90;;;;;;5074223;28;20411;-84
2022/06/12 07:21:59;;;;;;;18.33;5.00;;;20.70;99.90;;;;;;5073758;28;20127;-83
2022/06/12 07:24:25;;;;;;;23.95;4.38;;;20.70;99.90;;;;;;5072490;28;20052;-81
2022/06/12 07:26:51;;;;;;;18.70;4.05;;;21.00;99.90;;;;;;5072705;28;20055;-82
2022/06/12 07:29:19;;;;;;;20.75;3.88;;;21.10;99.90;;;;;;5074142;28;20048;-81
2022/06/12 07:31:46;;;;;;;16.48;3.45;;;21.30;99.90;;;;;;5074136;28;20049;-82
2022/06/12 07:34:12;;;;;;;20.17;3.65;;;21.40;99.90;;;;;;5073982;28;20046;-84
2022/06/12 07:36:39;;;;;;;16.15;3.60;;;21.60;99.90;;;;;;5073532;28;20045;-82
2022/06/12 07:39:10;;;;;;;15.93;3.55;;;21.80;99.90;;;;;;5073575;28;20048;-82
2022/06/12 07:41:36;;;;;;;20.35;3.88;;;21.90;99.90;;;;;;5073792;28;20048;-84
2022/06/12 07:44:02;;;;;;;22.88;3.80;;;21.90;99.90;;;;;;5073567;28;20527;-84
2022/06/12 07:46:28;;;;;;;25.00;3.92;;;21.70;99.90;;;;;;5072265;28;20071;-80
2022/06/12 07:48:55;;;;;;;16.75;3.65;;;21.80;99.90;;;;;;5073404;28;20041;-84
2022/06/12 07:51:21;;;;;;;18.80;3.60;;;21.80;99.90;;;;;;5072216;28;20048;-83
2022/06/12 07:53:49;;;;;;;19.30;3.33;;;21.80;99.90;;;;;;5072043;28;20056;-83
2022/06/12 07:56:16;;;;;;;14.98;3.45;;;21.90;99.90;;;;;;5073647;28;20045;-85
2022/06/12 07:58:41;;;;;;;18.42;4.10;;;22.10;99.90;;;;;;5073568;28;20044;-84
2022/06/12 08:01:10;;;;;;;16.55;3.58;;;22.00;99.90;;;;;;5072009;28;20564;-84
2022/06/12 08:03:36;;;;;;;16.15;3.80;;;22.00;99.90;;;;;;5073284;28;20675;-83
2022/06/12 08:06:02;;;;;;;24.70;3.65;;;22.10;99.90;;;;;;5072098;28;20052;-83
2022/06/12 08:08:28;;;;;;;14.70;3.47;;;22.00;99.90;;;;;;5073011;28;20520;-82
2022/06/12 08:10:55;;;;;;;17.23;3.10;;;21.80;99.90;;;;;;5104704;28;20052;-85
2022/06/12 08:13:23;;;;;;;19.20;4.95;;;21.60;99.90;;;;;;5073253;28;20041;-84
2022/06/12 08:15:51;;;;;;;18.30;3.90;;;21.40;99.90;;;;;;5071670;28;20193;-84
2022/06/12 08:18:18;;;;;;;25.15;4.57;;;21.50;99.90;;;;;;5072980;28;20055;-83
2022/06/12 08:20:47;;;;;;;12.48;2.70;;;21.50;99.90;;;;;;5072906;28;20041;-80
2022/06/12 08:23:33;;;;;;;15.80;3.30;;;21.50;99.90;;;;;;5073171;28;20056;-84
2022/06/12 08:26:26;;;;;;;17.13;3.88;;;21.40;99.90;;;;;;5072731;28;20041;-85
2022/06/12 08:29:03;;;;;;;16.35;3.70;;;21.40;99.90;;;;;;5072946;28;20392;-85
2022/06/12 08:31:57;;;;;;;19.45;5.32;;;21.20;99.90;;;;;;5072590;28;20497;-85
2022/06/12 08:35:06;;;;;;;20.00;3.47;;;21.20;99.90;;;;;;5067853;28;20136;-85
2022/06/12 08:37:36;;;;;;;16.50;3.10;;;21.00;99.90;;;;;;5071574;28;20445;-83
2022/06/12 08:40:04;;;;;;;15.63;3.55;;;21.10;99.90;;;;;;5072637;28;20062;-84
2022/06/12 08:42:38;;;;;;;20.85;3.63;;;21.00;99.90;;;;;;5072622;28;20088;-84
2022/06/12 08:45:07;;;;;;;;;;;20.80;99.90;;;;;;5073117;28;20047;-84
2022/06/12 08:47:45;;;;;;;14.02;3.50;;;20.70;99.90;;;;;;5071354;28;19971;-84
2022/06/12 08:50:23;;;;;;;15.02;3.25;;;20.80;99.90;;;;;;5071550;28;20048;-86
2022/06/12 08:53:02;;;;;;;12.35;3.60;;;21.10;99.90;;;;;;5072861;28;20111;-84
2022/06/12 08:55:41;;;;;;;14.63;2.92;;;21.20;99.90;;;;;;5070889;28;20052;-84
2022/06/12 08:58:31;;;;;;;14.52;3.03;;;21.50;99.90;;;;;;5072468;28;20044;-83
2022/06/12 09:01:01;;;;;;;15.18;3.25;;;21.50;99.90;;;;;;5072025;28;20395;-83
2022/06/12 09:03:31;;;;;;;14.05;2.75;;;21.50;99.90;;;;;;5072169;28;20421;-84
2022/06/12 09:06:16;;;;;;;12.13;2.88;;;21.40;99.90;;;;;;5072230;28;20041;-82
2022/06/12 09:08:55;;;;;;;13.25;3.40;;;21.40;99.90;;;;;;5072161;28;20102;-86
2022/06/12 09:11:36;;;;;;;12.13;2.55;;;21.40;99.90;;;;;;5071511;28;20488;-81
2022/06/12 09:14:38;;;;;;;18.52;2.55;;;21.50;99.90;;;;;;5071940;28;20090;-84
2022/06/12 09:17:13;;;;;;;11.55;2.58;;;21.50;99.90;;;;;;5070685;28;20059;-81
2022/06/12 09:20:01;;;;;;;22.70;3.50;;;21.70;99.90;;;;;;5071689;28;20048;-81
2022/06/12 09:22:54;;;;;;;13.90;2.38;;;21.30;99.90;;;;;;5069356;28;20545;-86
2022/06/12 09:25:32;;;;;;;9.60;2.00;;;21.20;99.90;;;;;;5071694;28;20055;-81
2022/06/12 09:28:23;;;;;;;9.45;2.15;;;21.50;99.90;;;;;;5070160;28;20044;-83
2022/06/12 09:30:59;;;;;;;12.13;2.85;;;21.40;99.90;;;;;;5071723;28;20040;-83
2022/06/12 09:33:47;;;;;;;9.57;2.17;;;21.30;99.90;;;;;;5071526;28;20053;-83
2022/06/12 09:36:49;;;;;;;9.32;2.20;;;21.40;99.90;;;;;;5071542;28;20084;-85
2022/06/12 09:39:35;;;;;;;11.45;2.60;;;21.50;99.90;;;;;;5071685;28;20037;-85
2022/06/12 09:42:34;;;;;;;11.25;2.15;;;21.90;99.90;;;;;;5070776;28;20067;-81
2022/06/12 09:45:17;;;;;;;8.23;1.92;;;22.10;99.90;;;;;;5071119;28;20087;-83
2022/06/12 09:47:48;;;;;;;7.75;1.88;;;22.20;99.90;;;;;;5069908;28;20115;-84
2022/06/12 09:50:49;;;;;;;10.65;2.30;;;22.10;99.90;;;;;;5071498;28;20044;-84
2022/06/12 09:53:33;;;;;;;8.27;2.10;;;22.20;99.90;;;;;;5071287;28;20055;-82
2022/06/12 09:56:10;;;;;;;9.23;1.98;;;22.30;99.90;;;;;;5071188;28;20417;-83
2022/06/12 09:58:47;;;;;;;6.60;1.75;;;22.20;99.90;;;;;;5071025;28;20143;-85
2022/06/12 10:01:24;;;;;;;8.40;1.88;;;22.40;99.90;;;;;;5069787;28;20239;-84
2022/06/12 10:04:02;;;;;;;6.35;1.40;;;22.60;99.90;;;;;;5070787;28;20048;-83
2022/06/12 10:06:36;;;;;;;8.55;1.75;;;22.50;99.90;;;;;;5052986;28;20057;-79
2022/06/12 10:09:32;;;;;;;4.35;1.38;;;22.50;99.90;;;;;;5070928;28;20049;-82
2022/06/12 10:12:09;;;;;;;10.85;2.10;;;22.70;99.90;;;;;;5070860;28;20560;-82
2022/06/12 10:14:49;;;;;;;9.70;1.60;;;22.80;99.90;;;;;;5069290;28;20044;-84
2022/06/12 10:17:30;;;;;;;5.65;1.45;;;23.00;99.90;;;;;;5070958;28;20066;-82
2022/06/12 10:20:05;;;;;;;10.10;1.73;;;22.70;99.90;;;;;;5069553;28;20122;-83
2022/06/12 10:22:51;;;;;;;7.55;1.42;;;22.20;99.90;;;;;;5070606;28;20456;-83
2022/06/12 10:25:32;;;;;;;6.55;1.60;;;22.10;99.90;;;;;;5069336;28;20079;-83
2022/06/12 10:28:03;;;;;;;7.75;1.73;;;22.30;99.90;;;;;;5070637;28;20041;-85
2022/06/12 10:30:42;;;;;;;5.72;1.40;;;22.50;99.90;;;;;;5070725;28;20109;-86
2022/06/12 10:33:26;;;;;;;7.03;1.50;;;22.80;99.90;;;;;;5070224;28;20566;-81
2022/06/12 10:35:59;;;;;;;9.07;1.77;;;22.70;99.90;;;;;;5070722;28;20086;-83
2022/06/12 10:38:31;;;;;;;6.80;1.75;;;22.50;99.90;;;;;;5070374;28;20541;-82
2022/06/12 10:41:06;;;;;;;8.70;1.73;;;22.10;99.90;;;;;;5070412;28;20683;-81
2022/06/12 10:43:42;;;;;;;8.65;1.20;;;21.80;99.90;;;;;;5069908;28;20060;-83
2022/06/12 10:46:18;;;;;;;7.00;1.60;;;21.90;99.90;;;;;;5069209;28;20144;-84
2022/06/12 10:49:04;;;;;;;6.55;1.40;;;22.00;99.90;;;;;;5070642;28;20119;-84
2022/06/12 10:51:36;;;;;;;10.85;1.65;;;22.10;99.90;;;;;;5069156;28;20052;-80
2022/06/12 10:54:10;;;;;;;6.57;1.20;;;22.40;99.90;;;;;;5070349;28;20052;-82
2022/06/12 10:57:02;;;;;;;5.95;1.60;;;22.50;99.90;;;;;;5069420;28;20360;-84
2022/06/12 10:59:53;;;;;;;10.00;1.73;;;22.50;99.90;;;;;;5070263;28;20123;-81
2022/06/12 11:02:41;;;;;;;8.43;2.28;;;21.80;99.90;;;;;;5070307;28;20037;-82
2022/06/12 11:05:47;;;;;;;7.60;1.70;;;21.70;99.90;;;;;;5070434;28;20091;-82
2022/06/12 11:08:34;;;;;;;9.98;2.42;;;21.40;99.90;;;;;;5067166;28;20049;-84
2022/06/12 11:11:26;;;;;;;7.20;1.85;;;21.50;99.90;;;;;;5070094;28;20145;-84
2022/06/12 11:13:59;;;;;;;6.88;1.65;;;21.80;99.90;;;;;;5070377;28;20056;-87
2022/06/12 11:16:49;;;;;;;6.70;2.20;;;22.00;99.90;;;;;;5070059;28;20045;-87
2022/06/12 11:19:21;;;;;;;5.20;1.52;;;22.10;99.90;;;;;;5070246;28;20048;-86
2022/06/12 11:21:56;;;;;;;8.63;2.42;;;22.40;99.90;;;;;;5052551;28;20108;-86
2022/06/12 11:24:26;;;;;;;6.10;1.73;;;22.40;99.90;;;;;;5052388;28;20041;-86
2022/06/12 11:27:27;;;;;;;7.85;1.60;;;22.30;99.90;;;;;;5070176;28;20079;-84
2022/06/12 11:30:30;;;;;;;8.73;1.90;;;22.50;99.90;;;;;;5068568;28;20056;-84
2022/06/12 11:33:14;;;;;;;9.57;1.92;;;22.60;99.90;;;;;;5068742;28;20526;-83
2022/06/12 11:36:15;;;;;;;7.90;1.55;;;22.50;99.90;;;;;;5069004;28;20430;-86
2022/06/12 11:39:06;;;;;;;6.13;1.50;;;22.10;99.40;;;;;;5070360;28;20387;-83
2022/06/12 11:41:53;;;;;;;6.60;1.40;;;21.90;99.90;;;;;;5069962;28;20579;-85
2022/06/12 11:44:47;;;;;;;7.50;1.70;;;21.40;99.90;;;;;;5051807;28;20133;-82
2022/06/12 11:47:53;;;;;;;14.55;1.77;;;21.30;99.70;;;;;;5073415;28;20064;-85
2022/06/12 11:50:19;;;;;;;7.05;1.75;;;21.10;99.90;;;;;;5071749;28;20056;-80
2022/06/12 11:53:00;;;;;;;7.07;1.60;;;21.50;99.90;;;;;;5073613;28;20399;-83
2022/06/12 11:55:38;;;;;;;11.02;2.42;;;21.80;99.90;;;;;;5073427;28;20056;-87
2022/06/12 11:58:26;;;;;;;7.55;1.40;;;22.00;99.90;;;;;;5073510;28;20040;-83
2022/06/12 12:01:05;;;;;;;9.95;2.08;;;21.90;99.90;;;;;;5071732;28;20135;-88
2022/06/12 12:03:49;;;;;;;8.32;1.70;;;21.80;99.90;;;;;;5073113;28;20399;-84
2022/06/12 12:06:33;;;;;;;8.70;2.50;;;21.90;99.90;;;;;;5072092;28;20048;-88
2022/06/12 12:09:14;;;;;;;14.57;1.95;;;21.80;99.90;;;;;;5073336;28;20055;-88
2022/06/12 12:11:52;;;;;;;8.70;2.03;;;21.80;99.90;;;;;;5072334;28;20048;-86
2022/06/12 12:14:31;;;;;;;10.82;1.95;;;21.80;99.90;;;;;;5073432;28;20052;-85
2022/06/12 12:17:13;;;;;;;8.70;1.65;;;22.10;99.90;;;;;;5071521;28;20380;-85
2022/06/12 12:19:49;;;;;;;8.77;1.60;;;22.20;99.90;;;;;;5073205;28;20056;-85
2022/06/12 12:22:23;;;;;;;5.07;1.40;;;22.10;99.90;;;;;;5071752;28;20449;-86
2022/06/12 12:25:02;;;;;;;6.78;1.65;;;22.00;99.30;;;;;;5071927;28;20455;-83
2022/06/12 12:27:45;;;;;;;6.10;1.50;;;21.60;99.90;;;;;;5073044;28;20040;-85
2022/06/12 12:30:22;;;;;;;7.50;1.77;;;21.40;99.50;;;;;;5073041;28;20052;-84
2022/06/12 12:32:51;;;;;;;6.75;1.30;;;21.60;99.90;;;;;;5072413;28;20713;-86
2022/06/12 12:43:33;;;;;;;;;;;21.30;99.90;;;;;;5072549;28;20060;-81
2022/06/12 12:46:05;;;;;;;9.07;1.92;;;21.70;99.90;;;;;;5072699;28;19932;-83
2022/06/12 12:48:44;;;;;;;6.22;1.50;;;21.70;99.90;;;;;;5072475;28;20037;-88
2022/06/12 12:51:22;;;;;;;10.25;1.60;;;21.70;99.90;;;;;;5072604;28;20182;-83
2022/06/12 12:53:48;;;;;;;8.80;2.05;;;21.60;99.30;;;;;;5072205;28;20036;-87
2022/06/12 12:56:15;;;;;;;12.32;1.88;;;21.50;99.90;;;;;;5104535;28;20059;-87
2022/06/12 12:58:58;;;;;;;9.27;2.03;;;21.60;99.90;;;;;;5071081;28;20048;-85
2022/06/12 13:01:45;;;;;;;7.85;1.95;;;21.70;99.90;;;;;;5070929;28;20090;-82
2022/06/12 13:04:13;;;;;;;4.57;1.52;;;21.80;99.90;;;;;;5071666;28;20056;-88
2022/06/12 13:06:52;;;;;;;5.95;1.60;;;22.10;99.90;;;;;;5070838;28;20127;-86
2022/06/12 13:09:30;;;;;;;10.15;1.73;;;22.10;99.90;;;;;;5072010;28;20045;-86
2022/06/12 13:12:04;;;;;;;8.48;2.40;;;22.00;99.90;;;;;;5054233;28;20481;-85
2022/06/12 13:14:50;;;;;;;8.85;1.75;;;21.90;99.90;;;;;;5054119;28;20500;-85
2022/06/12 13:17:41;;;;;;;5.93;1.48;;;22.00;99.90;;;;;;5070630;28;20240;-84
2022/06/12 13:20:30;;;;;;;8.02;1.65;;;22.10;99.90;;;;;;5071866;28;20055;-87
2022/06/12 13:23:11;;;;;;;7.30;1.80;;;22.10;99.90;;;;;;5071746;28;20106;-87
2022/06/12 13:25:47;;;;;;;7.05;1.70;;;21.70;99.90;;;;;;5070676;28;20434;-85
2022/06/12 13:28:28;;;;;;;7.35;2.00;;;22.20;99.90;;;;;;5053677;28;20048;-89
2022/06/12 13:30:56;;;;;;;8.07;1.73;;;22.00;99.90;;;;;;5070138;28;20041;-86
2022/06/12 13:33:25;;;;;;;9.50;1.67;;;21.60;99.50;;;;;;5070090;28;20045;-88
2022/06/12 13:35:54;;;;;;;10.55;2.00;;;21.40;99.90;;;;;;5071450;28;20041;-87
2022/06/12 13:38:45;;;;;;;14.30;1.88;;;21.00;99.90;;;;;;5053704;28;20044;-87
2022/06/12 13:41:29;;;;;;;8.50;2.45;;;21.40;99.90;;;;;;5071468;28;20438;-86